createdAt,value
2019-02-16T00:03:31.141Z,10.10
2019-02-16T00:08:33.032Z,9.70
2019-02-16T00:13:35.821Z,9.13
2019-02-16T00:18:37.736Z,10.70
2019-02-16T00:23:39.619Z,10.80
2019-02-16T00:28:41.562Z,10.20
2019-02-16T00:33:43.496Z,9.80
2019-02-16T00:38:45.414Z,9.67
2019-02-16T00:43:47.568Z,9.03
2019-02-16T00:48:49.448Z,9.10
2019-02-16T00:53:51.337Z,9.97
2019-02-16T00:58:53.572Z,8.97
2019-02-16T01:03:55.452Z,8.67
2019-02-16T01:08:57.350Z,9.37
2019-02-16T01:13:59.442Z,9.37
2019-02-16T01:19:02.429Z,8.70
2019-02-16T01:24:04.328Z,7.90
2019-02-16T01:29:07.381Z,8.87
2019-02-16T01:34:09.301Z,8.30
2019-02-16T01:39:11.212Z,8.43
2019-02-16T01:44:13.223Z,8.43
2019-02-16T01:49:15.123Z,9.47
2019-02-16T01:54:17.029Z,8.67
2019-02-16T01:59:19.036Z,9.67
2019-02-16T02:04:21.518Z,9.17
2019-02-16T02:09:24.015Z,8.73
2019-02-16T02:14:26.039Z,8.83
2019-02-16T02:19:28.029Z,8.87
2019-02-16T02:24:29.944Z,8.47
2019-02-16T02:29:31.915Z,8.93
2019-02-16T02:34:33.794Z,9.27
2019-02-16T02:39:37.030Z,8.37
2019-02-16T02:44:38.932Z,7.73
2019-02-16T02:49:40.917Z,8.23
2019-02-16T02:54:42.838Z,8.47
2019-02-16T02:59:44.777Z,8.37
2019-02-16T03:04:46.660Z,7.80
2019-02-16T03:09:48.590Z,7.77
2019-02-16T03:14:50.556Z,7.83
2019-02-16T03:19:52.447Z,7.23
2019-02-16T03:24:54.365Z,7.93
2019-02-16T03:30:22.423Z,8.30
2019-02-16T03:36:06.160Z,7.97
2019-02-16T03:41:08.130Z,7.80
2019-02-16T03:46:10.065Z,7.00
2019-02-16T03:51:12.046Z,9.37
2019-02-16T03:56:13.951Z,7.90
2019-02-16T04:01:16.180Z,7.73
2019-02-16T04:06:18.055Z,7.57
2019-02-16T04:11:20.249Z,6.57
2019-02-16T04:16:22.337Z,6.80
2019-02-16T04:21:24.276Z,7.10
2019-02-16T04:26:27.423Z,7.03
2019-02-16T04:31:29.364Z,7.80
2019-02-16T04:36:31.627Z,6.80
2019-02-16T04:41:33.603Z,6.80
2019-02-16T04:46:35.509Z,7.03
2019-02-16T04:51:37.397Z,6.97
2019-02-16T04:56:39.428Z,6.63
2019-02-16T05:01:41.427Z,6.43
2019-02-16T05:06:43.355Z,7.17
2019-02-16T05:11:45.299Z,6.67
2019-02-16T05:16:47.289Z,6.97
2019-02-16T05:21:49.187Z,6.73
2019-02-16T05:26:51.116Z,7.33
2019-02-16T05:31:53.542Z,6.80
2019-02-16T05:36:55.673Z,6.53
2019-02-16T05:41:57.617Z,6.17
2019-02-16T05:46:59.504Z,6.50
2019-02-16T05:52:01.489Z,6.00
2019-02-16T05:57:03.446Z,6.63
2019-02-16T06:02:05.402Z,6.37
2019-02-16T06:07:07.318Z,6.93
2019-02-16T06:12:09.869Z,7.87
2019-02-16T06:17:11.788Z,7.70
2019-02-16T06:22:13.795Z,7.30
2019-02-16T06:27:19.562Z,7.37
2019-02-16T06:32:21.636Z,6.90
2019-02-16T06:37:24.374Z,6.40
2019-02-16T06:42:29.411Z,6.03
2019-02-16T06:47:31.311Z,5.90
2019-02-16T06:52:33.253Z,5.90
2019-02-16T06:57:35.208Z,6.30
2019-02-16T07:02:37.146Z,5.40
2019-02-16T07:07:39.043Z,6.03
2019-02-16T07:12:41.942Z,6.77
2019-02-16T07:17:48.575Z,7.23
2019-02-16T07:22:50.569Z,7.43
2019-02-16T07:27:52.481Z,7.87
2019-02-16T07:32:54.430Z,7.23
2019-02-16T07:37:56.456Z,6.80
2019-02-16T07:42:59.076Z,6.80
2019-02-16T07:48:15.101Z,6.13
2019-02-16T07:53:31.356Z,6.77
2019-02-16T07:58:56.621Z,7.53
2019-02-16T08:04:06.204Z,5.70
2019-02-16T08:09:27.786Z,5.87
2019-02-16T08:14:58.347Z,6.10
2019-02-16T08:20:25.532Z,5.30
2019-02-16T08:25:38.572Z,6.60
2019-02-16T08:31:02.888Z,5.80
2019-02-16T08:36:36.125Z,5.73
2019-02-16T08:41:56.287Z,5.23
2019-02-16T08:47:04.233Z,7.20
2019-02-16T08:52:13.464Z,5.33
2019-02-16T08:57:35.813Z,5.90
2019-02-16T09:03:00.127Z,5.17
2019-02-16T09:08:10.675Z,5.17
2019-02-16T09:13:19.759Z,4.63
2019-02-16T09:18:49.742Z,5.47
2019-02-16T09:24:13.974Z,4.67
2019-02-16T09:29:27.200Z,4.23
2019-02-16T09:34:38.711Z,4.20
2019-02-16T09:39:50.627Z,4.70
2019-02-16T09:45:12.254Z,4.50
2019-02-16T09:50:20.391Z,4.17
2019-02-16T09:55:44.272Z,4.30
2019-02-16T10:00:52.190Z,3.77
2019-02-16T10:06:17.087Z,3.27
2019-02-16T10:11:32.934Z,2.87
2019-02-16T10:16:55.768Z,3.90
2019-02-16T10:22:07.638Z,3.20
2019-02-16T10:27:28.700Z,4.00
2019-02-16T10:32:49.264Z,3.70
2019-02-16T10:38:20.302Z,3.97
2019-02-16T10:43:45.119Z,3.83
2019-02-16T10:48:53.098Z,3.50
2019-02-16T10:54:02.100Z,3.57
2019-02-16T10:59:23.702Z,3.50
2019-02-16T11:04:49.447Z,2.67
2019-02-16T11:10:20.250Z,3.40
2019-02-16T11:15:49.601Z,3.03
2019-02-16T11:21:10.121Z,3.47
2019-02-16T11:26:34.523Z,2.80
2019-02-16T11:32:02.119Z,3.30
2019-02-16T11:37:18.406Z,2.93
2019-02-16T11:42:38.430Z,2.70
2019-02-16T11:47:48.577Z,2.63
2019-02-16T11:53:12.804Z,2.63
2019-02-16T11:58:27.024Z,2.33
2019-02-16T12:03:40.683Z,2.23
2019-02-16T12:08:55.874Z,2.33
2019-02-16T12:19:40.376Z,2.33
2019-02-16T12:25:05.670Z,2.33
2019-02-16T12:30:23.370Z,1.80
2019-02-16T12:35:41.600Z,1.70
2019-02-16T12:40:51.616Z,2.10
2019-02-16T12:46:07.181Z,2.20
2019-02-16T12:51:23.208Z,2.00
2019-02-16T12:56:33.702Z,1.80
2019-02-16T13:01:41.769Z,1.70
2019-02-16T13:06:57.067Z,10.03
2019-02-16T13:12:08.938Z,3.53
2019-02-16T13:17:28.869Z,1.63
2019-02-16T13:22:36.380Z,2.90
2019-02-16T13:28:00.779Z,1.67
2019-02-16T13:33:39.520Z,1.90
2019-02-16T13:39:03.802Z,1.97
2019-02-16T13:44:25.364Z,3.30
2019-02-16T13:49:52.695Z,1.67
2019-02-16T13:55:07.628Z,1.70
2019-02-16T14:00:41.532Z,1.90
2019-02-16T14:05:59.433Z,1.90
2019-02-16T14:11:17.870Z,1.60
2019-02-16T14:16:30.095Z,1.73
2019-02-16T14:21:31.985Z,1.60
2019-02-16T14:26:33.998Z,1.73
2019-02-16T14:31:35.995Z,1.40
2019-02-16T14:36:38.043Z,1.50
2019-02-16T14:41:40.004Z,1.60
2019-02-16T14:46:41.902Z,1.30
2019-02-16T14:51:43.841Z,2.00
2019-02-16T14:56:45.802Z,4.00
2019-02-16T15:01:47.830Z,2.40
2019-02-16T15:06:49.804Z,1.35
2019-02-16T15:11:51.819Z,1.27
2019-02-16T15:16:53.708Z,1.65
2019-02-16T15:21:55.944Z,1.40
2019-02-16T15:26:57.886Z,1.47
2019-02-16T15:31:59.785Z,1.60
2019-02-16T15:37:01.714Z,1.80
2019-02-16T15:42:03.625Z,1.80
2019-02-16T15:47:05.643Z,3.67
2019-02-16T15:52:07.745Z,2.95
2019-02-16T15:57:09.660Z,2.87
2019-02-16T16:02:11.698Z,2.90
2019-02-16T16:07:16.191Z,3.30
2019-02-16T16:12:37.745Z,3.60
2019-02-16T16:17:50.760Z,3.70
2019-02-16T16:23:00.289Z,3.57
2019-02-16T16:28:20.630Z,3.57
2019-02-16T16:33:42.305Z,3.03
2019-02-16T16:39:07.725Z,3.37
2019-02-16T16:44:25.604Z,3.40
2019-02-16T16:49:46.538Z,3.30
2019-02-16T16:55:08.153Z,3.77
2019-02-16T17:00:28.980Z,3.63
2019-02-16T17:05:52.675Z,3.93
2019-02-16T17:11:17.141Z,3.70
2019-02-16T17:16:38.439Z,4.00
2019-02-16T17:21:49.507Z,4.67
2019-02-16T17:27:22.366Z,6.17
2019-02-16T17:32:50.136Z,15.00
2019-02-16T17:38:05.617Z,8.40
2019-02-16T17:43:32.569Z,6.40
2019-02-16T17:48:41.222Z,6.43
2019-02-16T17:53:55.641Z,5.90
2019-02-16T17:59:03.275Z,6.53
2019-02-16T18:04:16.754Z,6.57
2019-02-16T18:09:37.100Z,6.33
2019-02-16T18:14:51.168Z,6.60
2019-02-16T18:20:04.355Z,8.77
2019-02-16T18:25:26.384Z,8.30
2019-02-16T18:30:37.965Z,8.20
2019-02-16T18:35:49.710Z,8.97
2019-02-16T18:41:08.614Z,10.77
2019-02-16T18:46:20.255Z,10.90
2019-02-16T18:51:54.013Z,12.40
2019-02-16T18:57:14.409Z,9.17
2019-02-16T19:02:35.251Z,12.17
2019-02-16T19:07:50.624Z,26.70
2019-02-16T19:13:04.910Z,48.20
2019-02-16T19:18:13.288Z,15.07
2019-02-16T19:23:28.808Z,11.10
2019-02-16T19:28:46.350Z,11.13
2019-02-16T19:34:11.912Z,11.60
2019-02-16T19:39:21.731Z,12.10
2019-02-16T19:44:41.985Z,12.13
2019-02-16T19:50:06.522Z,13.03
2019-02-16T19:55:19.376Z,13.07
2019-02-16T20:00:39.780Z,11.73
2019-02-16T20:05:51.524Z,11.17
2019-02-16T20:11:18.348Z,11.17
2019-02-16T20:16:29.327Z,11.47
2019-02-16T20:21:45.184Z,11.03
2019-02-16T20:27:12.695Z,11.50
2019-02-16T20:32:42.092Z,11.43
2019-02-16T20:37:54.003Z,14.30
2019-02-16T20:43:01.144Z,14.77
2019-02-16T20:48:16.334Z,13.07
2019-02-16T20:53:34.246Z,13.07
2019-02-16T20:58:42.226Z,13.00
2019-02-16T21:04:06.490Z,13.33
2019-02-16T21:09:21.023Z,13.53
2019-02-16T21:14:48.949Z,13.83
2019-02-16T21:19:58.721Z,10.93
2019-02-16T21:25:20.371Z,11.03
2019-02-16T21:30:40.922Z,9.33
2019-02-16T21:35:52.191Z,10.07
2019-02-16T21:41:02.091Z,10.00
2019-02-16T21:46:30.120Z,10.00
2019-02-16T21:51:45.315Z,10.40
2019-02-16T21:56:54.590Z,10.90
2019-02-16T22:02:22.245Z,10.47
2019-02-16T22:07:47.684Z,9.27
2019-02-16T22:13:05.032Z,11.10
2019-02-16T22:18:07.172Z,10.43
2019-02-16T22:23:09.067Z,10.03
2019-02-16T22:28:18.311Z,10.33
2019-02-16T22:33:15.016Z,10.70
2019-02-16T22:38:16.945Z,10.40
2019-02-16T22:43:18.856Z,10.37
2019-02-16T22:48:22.561Z,11.90
2019-02-16T22:53:25.549Z,14.50
2019-02-16T22:58:29.090Z,15.07
2019-02-16T23:03:31.463Z,14.13
2019-02-16T23:08:33.437Z,14.00
2019-02-16T23:13:36.768Z,12.90
2019-02-16T23:18:38.649Z,12.50
2019-02-16T23:23:40.743Z,11.70
2019-02-16T23:28:42.774Z,12.47
2019-02-16T23:33:44.706Z,10.90
2019-02-16T23:38:47.013Z,10.67
2019-02-16T23:43:49.024Z,10.13
2019-02-16T23:48:50.945Z,10.37
2019-02-16T23:53:53.066Z,11.23
2019-02-16T23:58:55.073Z,11.67
